Time;durP1;ratioP1;P1;durP2;ratioP2;P2;SDS_P1;SDS_P2;PMS_P1;PMS_P2;Temp;Humidity;BMP_temperature;BMP_pressure;BME280_temperature;BME280_humidity;BME280_pressure;Samples;Min_cycle;Max_cycle;Signal;HPM_P1;HPM_P2
2021/07/18 00:01:59;;;;;;;2.85;2.40;;;;;;;32.36;25.25;93620.69;5055424;28;20045;-52
2021/07/18 00:04:26;;;;;;;3.40;2.70;;;;;;;32.44;24.98;93616.50;5055647;28;20045;-53
2021/07/18 00:06:53;;;;;;;6.00;2.75;;;;;;;32.13;25.72;93618.44;5056284;28;20049;-50
2021/07/18 00:09:20;;;;;;;3.28;2.83;;;;;;;32.10;25.33;93606.56;5045888;28;20049;-51
2021/07/18 00:11:47;;;;;;;3.85;2.55;;;;;;;32.43;24.93;93620.41;5056087;28;20045;-50
2021/07/18 00:14:15;;;;;;;3.92;2.45;;;;;;;32.38;24.93;93610.19;5055609;28;20063;-53
2021/07/18 00:16:42;;;;;;;3.50;2.38;;;;;;;32.53;24.84;93613.13;5055639;28;20052;-51
2021/07/18 00:19:09;;;;;;;3.72;2.50;;;;;;;32.14;25.69;93609.13;5056010;28;20055;-50
2021/07/18 00:21:38;;;;;;;3.50;2.60;;;;;;;32.28;25.04;93616.75;5055331;28;20399;-50
2021/07/18 00:24:05;;;;;;;4.70;2.72;;;;;;;32.36;25.05;93614.53;5054483;28;20047;-52
2021/07/18 00:26:33;;;;;;;4.95;2.60;;;;;;;32.07;25.35;93615.53;5055212;28;20075;-53
2021/07/18 00:29:03;;;;;;;4.00;2.85;;;;;;;32.46;25.29;93613.34;5054873;28;20074;-52
2021/07/18 00:31:31;;;;;;;4.50;2.58;;;;;;;32.33;25.42;93610.75;5055717;28;20045;-53
2021/07/18 00:34:04;;;;;;;6.35;2.70;;;;;;;32.77;24.95;93616.03;5054963;28;20045;-51
2021/07/18 00:36:31;;;;;;;3.33;2.80;;;;;;;32.53;25.14;93606.91;5054844;28;20045;-52
2021/07/18 00:38:58;;;;;;;3.28;2.45;;;;;;;32.34;25.32;93608.81;5054919;28;20359;-56
2021/07/18 00:41:25;;;;;;;3.67;2.78;;;;;;;32.16;25.60;93612.13;5055083;28;20041;-52
2021/07/18 00:43:53;;;;;;;4.55;2.83;;;;;;;32.56;25.05;93606.06;5054966;28;20041;-55
2021/07/18 00:46:20;;;;;;;5.10;3.08;;;;;;;32.14;25.92;93598.31;5054698;28;20045;-52
2021/07/18 00:48:47;;;;;;;4.53;3.03;;;;;;;31.93;26.54;93607.19;5054581;28;20052;-54
2021/07/18 00:51:14;;;;;;;5.38;2.83;;;;;;;32.60;25.76;93607.41;5054951;28;20051;-55
2021/07/18 00:53:42;;;;;;;5.03;3.33;;;;;;;32.38;26.03;93606.72;5053296;28;20044;-52
2021/07/18 00:56:09;;;;;;;3.92;2.95;;;;;;;32.15;26.59;93610.63;5055030;28;20044;-53
2021/07/18 00:58:37;;;;;;;6.10;3.28;;;;;;;32.48;25.55;93610.97;5053066;28;20060;-52
2021/07/18 01:01:04;;;;;;;4.50;3.00;;;;;;;32.20;26.38;93608.09;5054135;28;20489;-53
2021/07/18 01:03:31;;;;;;;4.28;3.10;;;;;;;31.99;26.29;93605.41;5054795;28;20047;-55
2021/07/18 01:05:58;;;;;;;4.28;2.85;;;;;;;33.09;25.50;93610.16;5054125;28;20052;-53
2021/07/18 01:08:25;;;;;;;5.07;2.80;;;;;;;33.27;25.16;93608.66;5054836;28;20060;-53
2021/07/18 01:10:52;;;;;;;11.40;3.10;;;;;;;32.88;25.37;93610.25;5037176;28;20051;-52
2021/07/18 01:13:19;;;;;;;4.82;3.33;;;;;;;33.08;25.04;93603.22;5054417;28;20358;-51
2021/07/18 01:15:46;;;;;;;5.75;3.00;;;;;;;33.30;25.38;93603.09;5053387;28;20059;-51
2021/07/18 01:18:14;;;;;;;7.57;3.33;;;;;;;33.55;25.14;93612.16;5035030;28;20329;-57
2021/07/18 01:20:42;;;;;;;6.10;2.88;;;;;;;34.00;25.21;93606.00;5052794;28;20048;-52
2021/07/18 01:23:09;;;;;;;6.68;2.97;;;;;;;33.22;25.79;93606.53;5036145;28;20049;-53
2021/07/18 01:25:38;;;;;;;4.57;2.90;;;;;;;33.98;25.21;93597.56;5043296;28;20271;-56
2021/07/18 01:28:11;;;;;;;4.50;2.80;;;;;;;33.90;24.70;93615.34;5054340;28;20051;-59
2021/07/18 01:30:38;;;;;;;4.93;3.33;;;;;;;33.39;25.01;93610.50;5053043;28;20060;-54
2021/07/18 01:33:06;;;;;;;3.70;2.85;;;;;;;33.00;25.20;93612.81;5054207;28;20059;-53
2021/07/18 01:35:33;;;;;;;4.07;2.92;;;;;;;33.19;25.39;93612.88;5039944;28;20332;-53
2021/07/18 01:38:01;;;;;;;4.95;2.88;;;;;;;32.86;25.94;93618.06;5034317;28;20042;-50
2021/07/18 01:40:28;;;;;;;8.30;3.03;;;;;;;33.90;26.77;93615.34;5049940;28;20494;-47
2021/07/18 01:42:55;;;;;;;7.88;3.22;;;;;;;32.72;27.42;93619.31;5043057;28;20491;-69
2021/07/18 01:45:26;;;;;;;13.88;4.40;;;;;;;30.79;30.29;93614.41;5033803;28;20045;-68
2021/07/18 01:50:06;;;;;;;7.20;4.10;;;;;;;30.36;31.50;93614.91;5124198;27;20132;-61
2021/07/18 01:52:33;;;;;;;7.97;4.13;;;;;;;29.90;33.62;93616.94;5129078;28;20054;-54
2021/07/18 01:55:01;;;;;;;5.65;4.00;;;;;;;29.94;32.09;93606.84;5114714;28;20448;-48
2021/07/18 01:57:28;;;;;;;30.45;15.35;;;;;;;30.11;32.75;93609.47;5115904;28;20055;-49
2021/07/18 01:59:55;;;;;;;7.72;4.43;;;;;;;30.00;31.62;93615.91;5135278;27;20048;-46
2021/07/18 02:02:22;;;;;;;21.30;4.88;;;;;;;29.81;31.67;93608.72;5131201;28;20044;-53
2021/07/18 02:04:49;;;;;;;6.03;4.00;;;;;;;28.80;33.74;93617.75;5120841;28;20043;-57
2021/07/18 02:08:01;;;;;;;21.23;4.60;;;;;;;28.89;32.82;93611.06;5046719;27;1307334;-52
2021/07/18 02:15:57;;;;;;;8.38;4.10;;;;;;;29.10;32.06;93602.47;5132622;27;20116;-52
2021/07/18 02:18:25;;;;;;;7.78;4.03;;;;;;;29.93;30.61;93609.97;5111566;28;20441;-61
2021/07/18 02:20:57;;;;;;;6.28;3.95;;;;;;;29.96;30.59;93609.88;5104469;28;20036;-41
2021/07/18 02:23:24;;;;;;;8.43;4.03;;;;;;;31.52;27.88;93608.97;5091814;28;20044;-43
2021/07/18 02:25:51;;;;;;;5.85;3.38;;;;;;;32.30;26.54;93606.25;5091294;28;20048;-47
2021/07/18 02:28:18;;;;;;;4.25;3.20;;;;;;;32.12;27.07;93606.84;5102373;28;20365;-49
2021/07/18 02:30:47;;;;;;;5.10;3.38;;;;;;;32.94;25.73;93614.63;5110304;28;20044;-48
2021/07/18 02:33:14;;;;;;;6.88;2.95;;;;;;;32.56;26.38;93619.59;5111152;28;20055;-46
2021/07/18 02:35:41;;;;;;;3.53;2.90;;;;;;;32.47;26.12;93620.28;5091942;28;20044;-46
2021/07/18 02:38:08;;;;;;;3.85;2.78;;;;;;;32.86;25.66;93618.81;5081645;28;20484;-49
2021/07/18 02:40:35;;;;;;;5.07;3.05;;;;;;;32.38;26.36;93623.69;5111921;28;20051;-48
2021/07/18 02:43:03;;;;;;;9.05;3.10;;;;;;;32.78;25.95;93618.28;5112119;28;20373;-47
2021/07/18 02:45:32;;;;;;;5.10;3.05;;;;;;;32.84;26.24;93626.63;5111206;28;20040;-47
2021/07/18 02:47:59;;;;;;;4.45;3.38;;;;;;;32.50;26.29;93625.53;5111034;28;20055;-47
2021/07/18 02:50:28;;;;;;;9.30;3.20;;;;;;;32.37;26.67;93622.19;5111122;28;20055;-50
2021/07/18 02:52:55;;;;;;;4.78;3.25;;;;;;;32.25;26.89;93628.41;5111981;28;20043;-50
2021/07/18 02:55:22;;;;;;;5.63;3.30;;;;;;;32.32;26.95;93627.44;5110865;28;20040;-47
2021/07/18 02:57:50;;;;;;;12.25;3.45;;;;;;;31.87;27.24;93626.66;5111458;28;20078;-47
2021/07/18 03:00:19;;;;;;;5.10;3.30;;;;;;;32.45;26.33;93628.09;5111059;28;20039;-48
2021/07/18 03:02:46;;;;;;;6.90;3.50;;;;;;;32.43;26.78;93625.81;5111358;28;20059;-50
2021/07/18 03:05:14;;;;;;;4.65;3.35;;;;;;;32.04;27.54;93631.91;5112095;28;20044;-47
2021/07/18 03:07:42;;;;;;;5.57;3.00;;;;;;;32.68;26.70;93632.25;5109851;28;20063;-48
2021/07/18 03:10:11;;;;;;;3.95;3.08;;;;;;;33.15;25.88;93628.50;5111567;28;20044;-49
2021/07/18 03:12:38;;;;;;;4.05;3.10;;;;;;;32.61;26.93;93632.53;5111873;28;20052;-51
2021/07/18 03:15:07;;;;;;;6.47;3.35;;;;;;;32.94;26.55;93630.84;5110508;28;20044;-48
2021/07/18 03:17:34;;;;;;;4.65;3.30;;;;;;;32.74;26.43;93633.16;5111233;28;20051;-48
2021/07/18 03:20:03;;;;;;;4.80;3.72;;;;;;;33.11;26.37;93626.69;5090988;28;20040;-50
2021/07/18 03:22:32;;;;;;;4.07;3.55;;;;;;;33.58;25.67;93628.28;5090206;28;20075;-48
2021/07/18 03:25:03;;;;;;;5.32;2.97;;;;;;;33.70;25.49;93630.09;5090463;28;20040;-49
2021/07/18 03:27:30;;;;;;;3.60;3.15;;;;;;;33.91;25.05;93638.53;5078698;28;20052;-47
2021/07/18 03:29:57;;;;;;;5.60;3.50;;;;;;;33.43;25.53;93627.38;5096665;28;20044;-49
2021/07/18 03:32:24;;;;;;;5.57;3.40;;;;;;;33.95;25.12;93645.31;5097159;28;20052;-48
2021/07/18 03:34:51;;;;;;;6.07;3.28;;;;;;;33.76;25.15;93641.06;5096737;28;20051;-49
2021/07/18 03:37:18;;;;;;;4.00;3.38;;;;;;;33.71;25.54;93641.69;5083243;28;20481;-48
2021/07/18 03:39:45;;;;;;;8.00;4.07;;;;;;;33.13;26.01;93647.91;5096982;28;20454;-47
2021/07/18 03:42:12;;;;;;;6.43;3.50;;;;;;;33.88;25.17;93644.88;5097472;28;20055;-50
2021/07/18 03:44:40;;;;;;;4.88;3.50;;;;;;;34.25;24.64;93640.91;5097324;28;20058;-48
2021/07/18 03:47:07;;;;;;;3.97;3.33;;;;;;;34.01;25.08;93642.75;5096269;28;20043;-48
2021/07/18 03:49:35;;;;;;;6.38;3.50;;;;;;;33.10;25.85;93638.72;5096584;28;20048;-47
2021/07/18 03:52:02;;;;;;;3.88;3.30;;;;;;;33.52;25.78;93635.50;5096764;28;20435;-49
2021/07/18 03:54:29;;;;;;;4.15;3.15;;;;;;;33.70;25.49;93637.47;5096893;28;20059;-48
2021/07/18 03:56:57;;;;;;;4.25;3.50;;;;;;;33.60;25.45;93638.69;5096962;28;20382;-50
2021/07/18 03:59:24;;;;;;;3.85;3.22;;;;;;;33.61;25.92;93640.19;5096556;28;20044;-48
2021/07/18 04:01:51;;;;;;;5.57;3.60;;;;;;;33.28;26.02;93642.66;5096975;28;20067;-48
2021/07/18 04:04:18;;;;;;;6.03;3.35;;;;;;;33.66;25.89;93637.63;5096993;28;20470;-49
2021/07/18 04:06:45;;;;;;;3.83;3.30;;;;;;;33.54;25.94;93637.75;5086682;28;20063;-51
2021/07/18 04:09:12;;;;;;;4.63;3.75;;;;;;;33.27;26.63;93635.72;5090818;28;20047;-48
2021/07/18 04:11:40;;;;;;;4.60;3.67;;;;;;;33.13;26.42;93637.06;5095961;28;20370;-47
2021/07/18 04:14:07;;;;;;;7.20;3.90;;;;;;;32.97;26.50;93645.44;5096098;28;20052;-51
2021/07/18 04:16:34;;;;;;;5.68;3.47;;;;;;;33.15;26.47;93644.75;5095955;28;20052;-46
2021/07/18 04:19:01;;;;;;;6.35;4.15;;;;;;;32.90;27.14;93651.16;5096353;28;20040;-46
2021/07/18 04:21:28;;;;;;;4.80;3.75;;;;;;;32.79;26.92;93649.63;5096373;28;20055;-48
2021/07/18 04:23:55;;;;;;;4.20;3.67;;;;;;;32.99;27.20;93649.22;5095480;28;20489;-50
2021/07/18 04:26:22;;;;;;;4.95;3.70;;;;;;;32.85;27.28;93657.91;5094920;28;20044;-48
2021/07/18 04:28:49;;;;;;;5.13;3.90;;;;;;;33.04;27.21;93667.56;5095568;28;20079;-48
2021/07/18 04:31:16;;;;;;;4.97;3.50;;;;;;;32.49;28.24;93667.31;5096144;28;20382;-46
2021/07/18 04:33:43;;;;;;;3.83;3.42;;;;;;;33.55;26.64;93666.34;5096267;28;20044;-48
2021/07/18 04:36:11;;;;;;;5.35;3.50;;;;;;;33.38;26.82;93663.19;5090854;28;20051;-47
2021/07/18 04:38:38;;;;;;;7.45;3.92;;;;;;;33.64;26.80;93667.13;5081999;28;20040;-48
2021/07/18 04:41:05;;;;;;;4.60;3.50;;;;;;;33.61;26.87;93676.16;5089300;28;20059;-47
2021/07/18 04:43:32;;;;;;;4.70;3.85;;;;;;;33.22;27.64;93672.28;5096470;28;20075;-47
2021/07/18 04:45:59;;;;;;;5.72;3.60;;;;;;;33.77;26.82;93671.63;5095474;28;20040;-45
2021/07/18 04:48:26;;;;;;;5.25;3.95;;;;;;;33.47;27.02;93682.16;5095914;28;20044;-47
2021/07/18 04:50:53;;;;;;;4.30;3.60;;;;;;;33.83;26.54;93667.13;5095853;28;20047;-45
2021/07/18 04:53:20;;;;;;;6.15;3.42;;;;;;;32.66;28.39;93665.16;5096065;28;20044;-45
2021/07/18 04:55:48;;;;;;;5.63;3.75;;;;;;;32.31;28.52;93669.94;5085459;28;20070;-46
2021/07/18 04:58:15;;;;;;;4.75;3.40;;;;;;;32.95;27.94;93672.97;5080103;28;20071;-46
2021/07/18 05:00:42;;;;;;;5.07;3.90;;;;;;;32.89;28.10;93672.03;5095689;28;20047;-47
2021/07/18 05:03:09;;;;;;;6.50;3.72;;;;;;;33.09;27.91;93680.53;5095932;28;20758;-47
2021/07/18 05:05:37;;;;;;;5.57;3.58;;;;;;;33.42;27.61;93669.97;5094823;28;20044;-47
2021/07/18 05:08:04;;;;;;;5.50;3.60;;;;;;;33.42;27.81;93675.38;5091592;28;20067;-45
2021/07/18 05:10:31;;;;;;;5.72;3.50;;;;;;;34.14;26.63;93667.75;5095536;28;20651;-47
2021/07/18 05:12:59;;;;;;;5.45;3.80;;;;;;;33.40;27.93;93677.78;5095091;28;20044;-46
2021/07/18 05:15:27;;;;;;;6.47;3.72;;;;;;;33.87;27.53;93678.59;5095450;28;20056;-49
2021/07/18 05:17:55;;;;;;;4.68;3.75;;;;;;;33.44;26.82;93676.88;5094253;28;20055;-48
2021/07/18 05:20:22;;;;;;;5.13;3.38;;;;;;;33.55;27.01;93677.94;5077159;28;20048;-45
2021/07/18 05:22:50;;;;;;;3.78;3.22;;;;;;;33.19;27.08;93677.84;5095439;28;20048;-47
2021/07/18 05:25:17;;;;;;;5.43;3.50;;;;;;;33.76;26.68;93678.25;5094369;28;20381;-47
2021/07/18 05:27:45;;;;;;;6.05;3.78;;;;;;;33.91;26.30;93695.47;5092852;28;20054;-50
2021/07/18 05:30:13;;;;;;;5.45;3.40;;;;;;;34.49;25.78;93692.56;5093774;28;20059;-48
2021/07/18 05:32:40;;;;;;;3.95;3.08;;;;;;;34.81;25.44;93690.34;5095320;28;20051;-48
2021/07/18 05:35:08;;;;;;;5.75;3.95;;;;;;;34.71;25.68;93686.94;5076860;28;20055;-47
2021/07/18 05:37:36;;;;;;;4.20;3.70;;;;;;;34.87;25.38;93683.91;5090000;28;20051;-47
2021/07/18 05:40:08;;;;;;;6.20;3.38;;;;;;;34.54;25.90;93704.75;5094023;28;20063;-48
2021/07/18 05:42:35;;;;;;;3.45;3.13;;;;;;;34.45;25.59;93699.38;5094518;28;20055;-49
2021/07/18 05:45:05;;;;;;;5.05;3.50;;;;;;;34.19;26.05;93691.53;5095073;28;20052;-46
2021/07/18 05:47:34;;;;;;;4.22;3.05;;;;;;;34.01;26.11;93696.97;5095075;28;20048;-49
2021/07/18 05:50:02;;;;;;;5.82;3.55;;;;;;;33.67;26.51;93696.03;5093398;28;20051;-46
2021/07/18 05:52:29;;;;;;;4.18;3.10;;;;;;;34.07;26.06;93692.44;5074636;28;20051;-51
2021/07/18 05:54:57;;;;;;;5.63;3.40;;;;;;;34.45;25.67;93680.38;5074661;28;20052;-46
2021/07/18 05:57:24;;;;;;;4.93;3.50;;;;;;;34.29;26.09;93684.88;5074615;28;20071;-49
2021/07/18 05:59:51;;;;;;;8.07;3.15;;;;;;;34.69;25.94;93683.19;5089976;28;20446;-47
2021/07/18 06:02:18;;;;;;;6.70;3.63;;;;;;;34.85;25.54;93683.56;5094323;28;20058;-48
2021/07/18 06:04:45;;;;;;;6.00;3.50;;;;;;;35.00;25.13;93674.78;5082836;28;20500;-53
2021/07/18 06:07:12;;;;;;;6.05;3.53;;;;;;;35.06;25.29;93687.28;5085322;28;20044;-48
2021/07/18 06:09:40;;;;;;;6.72;3.55;;;;;;;34.88;25.54;93673.78;5094502;28;20044;-48
2021/07/18 06:12:07;;;;;;;9.20;3.78;;;;;;;34.97;25.23;93681.13;5094148;28;20051;-48
2021/07/18 06:14:35;;;;;;;6.50;3.40;;;;;;;35.12;25.03;93679.25;5094501;28;20064;-50
2021/07/18 06:17:02;;;;;;;6.75;3.47;;;;;;;34.98;24.64;93680.69;5093766;28;20114;-51
2021/07/18 06:19:29;;;;;;;9.23;3.58;;;;;;;34.55;24.70;93679.13;5093901;28;20047;-47
2021/07/18 06:21:56;;;;;;;4.47;3.15;;;;;;;34.64;25.20;93676.41;5076270;28;20439;-49
2021/07/18 06:24:23;;;;;;;6.90;3.58;;;;;;;34.32;24.94;93672.38;5074436;28;20044;-47
2021/07/18 06:26:50;;;;;;;7.68;3.50;;;;;;;34.45;25.07;93669.53;5073499;28;20048;-46
2021/07/18 06:29:17;;;;;;;5.47;3.40;;;;;;;34.78;24.89;93659.47;5085126;28;20360;-47
2021/07/18 06:31:44;;;;;;;6.10;3.65;;;;;;;34.65;24.99;93683.34;5093739;28;20056;-46
2021/07/18 06:34:11;;;;;;;6.50;3.55;;;;;;;33.97;25.54;93674.69;5093854;28;20058;-48
2021/07/18 06:36:38;;;;;;;6.57;3.45;;;;;;;34.48;25.01;93679.47;5093775;28;20054;-48
2021/07/18 06:39:05;;;;;;;6.20;4.07;;;;;;;34.51;25.22;93662.25;5093226;28;20052;-48
2021/07/18 06:41:32;;;;;;;5.95;3.53;;;;;;;34.41;25.17;93658.09;5094563;28;20044;-47
2021/07/18 06:44:01;;;;;;;4.13;3.38;;;;;;;34.42;25.37;93665.00;5094449;28;20377;-48
2021/07/18 06:46:29;;;;;;;6.15;3.95;;;;;;;34.74;25.25;93653.44;5093962;28;20354;-50
2021/07/18 06:48:57;;;;;;;6.68;4.28;;;;;;;34.89;24.66;93662.47;5093690;28;20047;-49
2021/07/18 06:51:24;;;;;;;5.38;4.25;;;;;;;35.17;24.49;93656.91;5094409;28;20521;-47
2021/07/18 06:53:51;;;;;;;4.65;3.55;;;;;;;34.97;24.76;93654.72;5093675;28;20453;-49
2021/07/18 06:56:18;;;;;;;6.55;4.10;;;;;;;34.68;25.04;93649.84;5094182;28;20386;-50
2021/07/18 06:58:45;;;;;;;5.65;4.28;;;;;;;34.50;25.04;93647.19;5093086;28;20051;-49
2021/07/18 07:01:12;;;;;;;6.05;4.60;;;;;;;34.69;25.17;93639.75;5095789;28;20079;-50
2021/07/18 07:03:39;;;;;;;9.93;4.43;;;;;;;35.08;24.36;93643.34;5098162;28;20047;-50
2021/07/18 07:06:07;;;;;;;6.50;3.83;;;;;;;35.16;24.26;93639.84;5097412;28;20043;-51
2021/07/18 07:08:34;;;;;;;5.07;4.13;;;;;;;35.23;24.44;93644.19;5096981;28;20040;-50
2021/07/18 07:11:01;;;;;;;5.60;4.20;;;;;;;35.23;24.52;93638.75;5091489;28;20375;-49
2021/07/18 07:13:29;;;;;;;6.70;4.10;;;;;;;35.50;23.99;93663.06;5077413;28;20075;-50
2021/07/18 07:15:57;;;;;;;8.63;4.05;;;;;;;34.92;24.47;93642.53;5077606;28;20355;-51
2021/07/18 07:18:24;;;;;;;11.93;4.10;;;;;;;35.36;23.92;93638.53;5079608;28;20044;-52
2021/07/18 07:20:51;;;;;;;7.10;4.60;;;;;;;35.39;23.77;93651.19;5096279;28;20051;-50
2021/07/18 07:23:19;;;;;;;9.07;4.45;;;;;;;35.43;23.47;93647.13;5097807;28;20039;-49
2021/07/18 07:25:46;;;;;;;8.73;4.30;;;;;;;35.39;23.91;93653.91;5096953;28;20052;-49
2021/07/18 07:28:13;;;;;;;5.55;4.10;;;;;;;35.57;23.80;93644.91;5096907;28;20044;-51
2021/07/18 07:30:41;;;;;;;7.05;4.30;;;;;;;35.69;23.70;93652.81;5097372;28;20052;-52
2021/07/18 07:33:09;;;;;;;11.50;4.78;;;;;;;35.79;23.29;93645.34;5097232;28;20044;-51
2021/07/18 07:35:36;;;;;;;12.02;4.82;;;;;;;35.92;23.63;93632.28;5079456;28;20052;-50
2021/07/18 07:38:05;;;;;;;9.07;4.80;;;;;;;35.94;23.49;93651.59;5096231;28;20048;-50
2021/07/18 07:40:32;;;;;;;7.90;4.65;;;;;;;35.93;23.56;93635.75;5096434;28;20052;-50
2021/07/18 07:42:59;;;;;;;7.35;4.40;;;;;;;35.88;23.70;93631.69;5083303;28;20040;-53
2021/07/18 07:45:26;;;;;;;6.95;4.50;;;;;;;35.85;23.34;93638.06;5076894;28;20040;-51
2021/07/18 07:47:53;;;;;;;6.07;3.97;;;;;;;35.77;23.26;93632.22;5075877;28;20052;-51
2021/07/18 07:50:21;;;;;;;5.03;3.90;;;;;;;35.58;23.41;93635.53;5076407;28;20727;-53
2021/07/18 07:52:48;;;;;;;8.20;4.25;;;;;;;35.69;23.56;93641.94;5097272;28;20051;-51
2021/07/18 07:55:15;;;;;;;9.38;4.28;;;;;;;35.93;23.25;93641.19;5097038;28;20055;-51
2021/07/18 07:57:42;;;;;;;8.93;4.20;;;;;;;36.30;22.86;93636.13;5078822;28;20056;-54
2021/07/18 08:00:12;;;;;;;7.82;4.13;;;;;;;36.31;22.87;93634.94;5096523;28;20040;-52
2021/07/18 08:02:43;;;;;;;6.60;3.92;;;;;;;36.57;22.92;93630.44;5096282;28;20048;-49
2021/07/18 08:05:10;;;;;;;9.57;4.38;;;;;;;36.89;22.32;93630.69;5096909;28;20040;-53
2021/07/18 08:07:38;;;;;;;7.85;4.60;;;;;;;37.02;22.43;93625.69;5092887;28;20047;-52
2021/07/18 08:10:10;;;;;;;9.70;4.72;;;;;;;37.03;22.17;93625.19;5095538;28;20378;-52
2021/07/18 08:12:38;;;;;;;6.85;3.90;;;;;;;36.77;22.92;93618.09;5076185;28;20044;-46
2021/07/18 08:15:07;;;;;;;7.20;4.28;;;;;;;36.71;23.11;93618.78;5096282;28;20066;-43
2021/07/18 08:17:34;;;;;;;5.25;4.30;;;;;;;37.05;22.71;93616.56;5088341;28;20052;-61
2021/07/18 08:20:10;;;;;;;8.18;4.55;;;;;;;37.30;22.38;93615.94;5080013;28;20051;-48
2021/07/18 08:22:37;;;;;;;7.57;4.82;;;;;;;37.59;22.42;93611.56;5072585;28;20044;-47
2021/07/18 08:25:06;;;;;;;6.68;4.78;;;;;;;37.75;22.06;93616.47;5076338;28;20044;-57
2021/07/18 08:27:33;;;;;;;6.32;4.47;;;;;;;37.08;22.28;93621.03;5076239;28;20048;-51
2021/07/18 08:30:02;;;;;;;7.18;4.28;;;;;;;37.15;22.22;93634.25;5082408;28;20048;-66
2021/07/18 08:32:29;;;;;;;11.43;4.15;;;;;;;37.24;21.97;93634.16;5075354;28;20478;-52
2021/07/18 08:34:56;;;;;;;7.05;4.10;;;;;;;37.45;21.64;93615.09;5075776;28;20060;-52
2021/07/18 08:37:23;;;;;;;7.13;4.20;;;;;;;37.09;22.23;93608.94;5088469;28;20086;-48
2021/07/18 08:39:51;;;;;;;6.95;3.70;;;;;;;37.10;22.30;93615.13;5091833;28;20055;-57
2021/07/18 08:42:18;;;;;;;5.40;3.90;;;;;;;36.87;22.27;93619.50;5095276;28;20044;-55
2021/07/18 08:44:45;;;;;;;6.38;4.07;;;;;;;36.86;22.21;93612.56;5077438;28;20067;-54
2021/07/18 08:47:13;;;;;;;6.80;3.72;;;;;;;37.11;22.24;93608.44;5075733;28;20461;-58
2021/07/18 08:49:40;;;;;;;4.05;3.60;;;;;;;37.25;22.29;93602.97;5078439;28;20055;-55
2021/07/18 08:52:07;;;;;;;7.88;3.80;;;;;;;37.22;21.59;93606.63;5075575;28;20048;-56
2021/07/18 08:54:34;;;;;;;5.85;3.35;;;;;;;37.09;21.82;93610.91;5075794;28;20490;-54
2021/07/18 08:57:03;;;;;;;8.35;3.78;;;;;;;36.96;21.36;93612.00;5091997;28;20044;-54
2021/07/18 08:59:31;;;;;;;5.88;3.60;;;;;;;37.68;20.51;93597.75;5087999;28;20059;-54
2021/07/18 09:02:00;;;;;;;6.57;3.75;;;;;;;37.37;20.36;93612.03;5079831;28;20378;-55
2021/07/18 09:04:29;;;;;;;5.05;3.85;;;;;;;37.24;20.99;93614.34;5078047;28;20340;-55
2021/07/18 09:07:04;;;;;;;7.25;4.20;;;;;;;37.65;20.33;93615.09;5084500;28;20085;-57
2021/07/18 09:09:32;;;;;;;14.85;5.40;;;;;;;37.55;19.70;93605.56;5069393;28;20046;-53
2021/07/18 09:12:05;;;;;;;9.23;4.70;;;;;;;37.78;20.19;93617.50;5086265;28;20051;-58
2021/07/18 09:14:40;;;;;;;5.90;3.80;;;;;;;37.17;20.24;93598.38;5065029;28;20060;-54
2021/07/18 09:17:15;;;;;;;10.15;4.00;;;;;;;37.22;20.34;93600.44;5065487;28;20396;-53
2021/07/18 09:19:46;;;;;;;7.20;3.72;;;;;;;37.45;20.39;93599.50;5061144;28;20048;-53
2021/07/18 09:22:18;;;;;;;6.95;3.28;;;;;;;37.58;20.74;93588.25;5065182;28;20051;-52
2021/07/18 09:24:54;;;;;;;7.70;3.38;;;;;;;37.86;20.30;93597.50;5064093;28;20048;-55
2021/07/18 09:27:25;;;;;;;5.40;3.65;;;;;;;37.89;20.34;93593.81;5064754;28;20045;-58
2021/07/18 09:29:56;;;;;;;4.77;3.60;;;;;;;37.83;20.27;93587.56;5064706;28;20048;-55
2021/07/18 09:32:24;;;;;;;10.60;3.40;;;;;;;37.95;19.67;93599.31;5065949;28;20068;-55
2021/07/18 09:35:04;;;;;;;5.15;3.20;;;;;;;38.04;19.43;93584.78;5065335;28;20056;-54
2021/07/18 09:37:34;;;;;;;7.88;3.50;;;;;;;38.11;19.25;93576.16;5063945;28;20056;-54
2021/07/18 09:40:11;;;;;;;6.90;3.08;;;;;;;38.30;19.32;93591.00;5061052;28;20055;-53
2021/07/18 09:42:42;;;;;;;4.95;3.35;;;;;;;38.21;19.16;93596.59;5062697;28;20048;-53
2021/07/18 09:45:13;;;;;;;6.65;3.10;;;;;;;38.11;19.50;93585.09;5063724;28;20056;-54
2021/07/18 09:48:06;;;;;;;6.78;3.67;;;;;;;37.63;19.72;93595.72;5064776;28;20041;-57
2021/07/18 09:50:44;;;;;;;5.72;3.05;;;;;;;37.85;19.75;93604.19;5065641;28;20059;-53
2021/07/18 09:53:19;;;;;;;6.38;3.20;;;;;;;37.79;19.36;93597.94;5064392;28;20391;-53
2021/07/18 09:56:03;;;;;;;3.78;3.13;;;;;;;37.59;19.82;93612.31;5056716;28;20045;-52
2021/07/18 09:58:32;;;;;;;7.45;3.25;;;;;;;38.24;19.31;93592.91;5065653;28;20041;-58
2021/07/18 10:01:01;;;;;;;7.97;3.50;;;;;;;37.96;19.62;93582.47;5062511;28;20459;-52
2021/07/18 10:03:29;;;;;;;7.65;3.40;;;;;;;37.85;19.54;93568.72;5063097;28;20061;-55
2021/07/18 10:06:10;;;;;;;8.18;3.25;;;;;;;37.75;19.24;93589.22;5064810;28;20048;-54
2021/07/18 10:08:54;;;;;;;6.57;3.35;;;;;;;37.85;19.93;93579.63;5064721;28;20053;-52
2021/07/18 10:11:24;;;;;;;4.22;3.47;;;;;;;37.74;19.43;93573.34;5065949;28;20332;-53
2021/07/18 10:13:52;;;;;;;12.43;3.03;;;;;;;37.86;18.87;93570.22;5063995;28;20055;-52
2021/07/18 10:16:21;;;;;;;6.55;3.05;;;;;;;38.12;18.52;93578.41;5084404;28;20048;-55
2021/07/18 10:18:50;;;;;;;4.43;2.88;;;;;;;38.00;17.93;93573.31;5084292;28;20071;-53
2021/07/18 10:21:20;;;;;;;5.93;3.08;;;;;;;37.94;17.94;93579.47;5083620;28;20048;-53
2021/07/18 10:23:49;;;;;;;7.75;2.90;;;;;;;37.99;18.18;93578.03;5081304;28;20055;-56
2021/07/18 10:26:25;;;;;;;6.20;2.83;;;;;;;37.99;18.00;93577.28;5082820;28;20040;-52
2021/07/18 10:28:52;;;;;;;8.02;3.25;;;;;;;38.53;17.31;93581.75;5074132;28;20458;-55
2021/07/18 10:31:22;;;;;;;4.90;3.00;;;;;;;37.82;18.17;93582.59;5082320;28;20044;-59
2021/07/18 10:33:50;;;;;;;7.78;2.78;;;;;;;37.94;18.31;93581.44;5073650;28;20044;-54
2021/07/18 10:36:21;;;;;;;4.85;3.03;;;;;;;37.80;17.69;93572.16;5079262;28;20048;-56
2021/07/18 10:38:48;;;;;;;4.20;2.83;;;;;;;37.86;18.28;93581.13;5098674;28;20454;-55
2021/07/18 10:41:16;;;;;;;6.03;3.17;;;;;;;37.83;17.92;93576.66;5088627;28;20375;-56
2021/07/18 10:43:50;;;;;;;7.10;2.90;;;;;;;38.16;17.67;93576.19;5098436;28;20437;-56
2021/07/18 10:46:46;;;;;;;6.57;3.15;;;;;;;37.72;18.24;93571.06;5080135;28;20489;-57
2021/07/18 10:49:15;;;;;;;6.82;3.47;;;;;;;38.72;17.22;93559.53;5077373;28;20056;-59
2021/07/18 10:51:49;;;;;;;7.32;3.50;;;;;;;38.65;17.18;93560.75;5083473;28;20048;-54
2021/07/18 10:54:21;;;;;;;5.93;3.00;;;;;;;38.22;18.16;93554.44;5077239;28;20040;-53
2021/07/18 10:56:54;;;;;;;6.32;3.42;;;;;;;38.65;16.87;93540.88;5077800;28;20522;-55
2021/07/18 10:59:38;;;;;;;7.30;3.40;;;;;;;38.29;17.00;93551.28;5076959;28;20048;-57
2021/07/18 11:02:11;;;;;;;9.32;3.60;;;;;;;38.56;17.35;93547.28;5086254;28;20055;-60
2021/07/18 11:04:58;;;;;;;7.65;3.70;;;;;;;38.69;16.82;93542.16;5077042;28;20055;-54
2021/07/18 11:07:28;;;;;;;8.07;3.50;;;;;;;38.03;18.00;93534.19;5090532;28;20040;-54
2021/07/18 11:09:58;;;;;;;9.77;3.38;;;;;;;38.07;17.46;93531.97;5095501;28;20055;-52
2021/07/18 11:12:32;;;;;;;101.75;85.32;;;;;;;38.03;18.12;93528.72;5089757;28;20059;-50
2021/07/18 11:15:21;;;;;;;19.83;5.82;;;;;;;38.11;17.67;93532.50;5077036;28;20077;-56
2021/07/18 11:18:04;;;;;;;6.50;3.30;;;;;;;38.13;18.06;93508.22;5077225;28;20056;-50
2021/07/18 11:20:53;;;;;;;5.75;3.03;;;;;;;38.09;18.24;93504.97;5092101;28;20051;-53
2021/07/18 11:23:29;;;;;;;9.65;3.45;;;;;;;37.93;18.44;93515.25;5092801;28;20036;-54
2021/07/18 11:26:02;;;;;;;3.78;2.75;;;;;;;37.81;17.69;93502.00;5095913;28;20051;-57
2021/07/18 11:28:31;;;;;;;3.80;3.00;;;;;;;38.30;17.53;93484.56;5076179;28;20363;-58
2021/07/18 11:31:13;;;;;;;6.10;2.90;;;;;;;38.08;17.67;93478.91;5077836;28;20048;-51
2021/07/18 11:34:00;;;;;;;7.22;3.20;;;;;;;38.12;17.62;93501.25;5097103;28;20052;-51
2021/07/18 11:36:33;;;;;;;7.82;3.10;;;;;;;37.89;17.60;93492.91;5058232;28;20454;-53
2021/07/18 11:39:11;;;;;;;7.03;3.42;;;;;;;38.15;17.54;93494.84;5092989;28;20056;-66
2021/07/18 11:41:39;;;;;;;10.30;3.10;;;;;;;37.91;17.69;93504.06;5076314;28;20059;-51
2021/07/18 11:44:06;;;;;;;9.05;3.58;;;;;;;38.07;17.06;93488.34;5077189;28;20049;-52
2021/07/18 11:46:37;;;;;;;11.75;3.88;;;;;;;37.79;17.43;93488.84;5085568;28;20044;-54
2021/07/18 11:49:05;;;;;;;5.82;3.20;;;;;;;37.55;17.55;93491.81;5097099;28;20052;-54